Time;durP1;ratioP1;P1;durP2;ratioP2;P2;SDS_P1;SDS_P2;PMS_P1;PMS_P2;Temp;Humidity;BMP_temperature;BMP_pressure;BME280_temperature;BME280_humidity;BME280_pressure;Samples;Min_cycle;Max_cycle;Signal;HPM_P1;HPM_P2
2022/02/24 00:00:09;;;;;;;9.33;8.53;;;8.20;99.90;;;;;;5011949;28;20622;-67
2022/02/24 00:02:34;;;;;;;8.80;7.97;;;8.10;99.90;;;;;;5012020;28;20176;-67
2022/02/24 00:05:00;;;;;;;7.17;6.57;;;8.10;99.90;;;;;;5004944;28;20678;-67
2022/02/24 00:07:26;;;;;;;7.60;6.90;;;8.00;99.90;;;;;;5012122;28;20192;-67
2022/02/24 00:09:52;;;;;;;9.43;7.57;;;8.00;99.90;;;;;;5012361;28;20180;-66
2022/02/24 00:12:19;;;;;;;7.80;7.10;;;8.00;99.90;;;;;;5011969;28;20560;-65
2022/02/24 00:14:45;;;;;;;7.07;6.67;;;8.10;99.90;;;;;;5012059;28;20200;-67
2022/02/24 00:17:11;;;;;;;7.50;6.80;;;8.10;99.90;;;;;;5012148;28;20236;-66
2022/02/24 00:19:37;;;;;;;9.27;7.30;;;8.20;99.90;;;;;;5011928;28;20172;-67
2022/02/24 00:22:03;;;;;;;9.87;7.17;;;8.30;99.90;;;;;;5011870;28;20175;-67
2022/02/24 00:24:29;;;;;;;8.50;7.37;;;8.30;99.90;;;;;;5011846;28;20233;-67
2022/02/24 00:26:54;;;;;;;7.30;6.70;;;8.40;99.90;;;;;;5011819;28;20202;-67
2022/02/24 00:29:20;;;;;;;7.67;6.93;;;8.40;99.90;;;;;;5011786;28;20180;-66
2022/02/24 00:31:46;;;;;;;7.20;6.80;;;8.40;99.90;;;;;;5009706;28;20665;-66
2022/02/24 00:34:12;;;;;;;8.20;7.40;;;8.40;99.90;;;;;;5009894;28;20215;-67
2022/02/24 00:36:38;;;;;;;8.70;7.77;;;8.40;99.90;;;;;;5010568;28;20204;-66
2022/02/24 00:39:03;;;;;;;8.63;7.77;;;8.40;99.90;;;;;;5010601;28;20513;-66
2022/02/24 00:41:29;;;;;;;8.33;7.67;;;8.40;99.90;;;;;;5011928;28;20172;-66
2022/02/24 00:43:55;;;;;;;7.77;7.20;;;8.30;99.90;;;;;;5009958;28;20250;-66
2022/02/24 00:46:21;;;;;;;10.90;8.07;;;8.30;99.90;;;;;;5012117;28;20257;-66
2022/02/24 00:48:46;;;;;;;8.40;7.90;;;8.30;99.90;;;;;;5011490;28;20203;-66
2022/02/24 00:51:12;;;;;;;10.27;9.43;;;8.30;99.90;;;;;;5011373;28;20568;-66
2022/02/24 00:53:41;;;;;;;10.33;9.53;;;8.30;99.90;;;;;;5010760;28;20214;-67
2022/02/24 00:56:08;;;;;;;9.50;8.93;;;8.30;99.90;;;;;;5010317;28;20669;-66
2022/02/24 00:58:33;;;;;;;11.90;9.40;;;8.20;99.90;;;;;;5011494;28;20176;-66
2022/02/24 01:00:59;;;;;;;9.60;8.93;;;8.20;99.90;;;;;;5011174;28;20246;-65
2022/02/24 01:03:24;;;;;;;8.77;7.93;;;8.20;99.90;;;;;;5011757;28;20197;-66
2022/02/24 01:05:50;;;;;;;10.50;8.53;;;8.20;99.90;;;;;;5009016;28;20250;-66
2022/02/24 01:08:16;;;;;;;8.93;8.13;;;8.20;99.90;;;;;;5011388;28;20187;-67
2022/02/24 01:10:41;;;;;;;8.83;8.13;;;8.20;99.90;;;;;;5011420;28;20176;-67
2022/02/24 01:13:07;;;;;;;8.60;7.83;;;8.30;99.90;;;;;;5010798;28;20772;-67
2022/02/24 01:15:34;;;;;;;8.77;7.97;;;8.30;99.90;;;;;;5012208;28;20765;-66
2022/02/24 01:18:00;;;;;;;8.33;7.63;;;8.30;99.90;;;;;;5010179;28;20204;-66
2022/02/24 01:20:25;;;;;;;8.30;7.47;;;8.20;99.90;;;;;;5010337;28;20603;-66
2022/02/24 01:22:51;;;;;;;8.13;7.47;;;8.30;99.90;;;;;;5009697;28;20206;-66
2022/02/24 01:25:19;;;;;;;8.27;7.50;;;8.30;99.90;;;;;;5011038;28;20256;-66
2022/02/24 01:27:46;;;;;;;7.73;7.13;;;8.30;99.90;;;;;;5011518;28;20259;-67
2022/02/24 01:30:12;;;;;;;9.87;8.33;;;8.20;99.90;;;;;;5011030;28;20202;-66
2022/02/24 01:32:38;;;;;;;8.00;7.30;;;8.20;99.90;;;;;;5011036;28;20172;-66
2022/02/24 01:35:04;;;;;;;7.30;6.60;;;8.20;99.90;;;;;;5010766;28;20211;-66
2022/02/24 01:37:30;;;;;;;7.23;6.50;;;8.20;99.90;;;;;;5015851;28;20190;-66
2022/02/24 01:39:56;;;;;;;7.90;7.07;;;8.20;99.90;;;;;;5030788;28;20661;-67
2022/02/24 01:42:22;;;;;;;7.80;7.10;;;8.20;99.90;;;;;;5030712;28;20634;-66
2022/02/24 01:44:48;;;;;;;7.80;7.10;;;8.20;99.90;;;;;;5029967;28;20195;-67
2022/02/24 01:47:14;;;;;;;8.33;7.53;;;8.20;99.90;;;;;;5010808;28;20172;-67
2022/02/24 01:49:41;;;;;;;9.53;7.17;;;8.20;99.90;;;;;;5010938;28;20203;-66
2022/02/24 01:52:11;;;;;;;8.20;7.43;;;8.20;99.90;;;;;;5009470;28;20176;-67
2022/02/24 01:54:38;;;;;;;7.27;6.77;;;8.20;99.90;;;;;;5009392;28;20188;-65
2022/02/24 01:57:04;;;;;;;7.00;6.60;;;8.10;99.90;;;;;;5011202;28;20638;-67
2022/02/24 01:59:31;;;;;;;7.70;6.90;;;8.20;99.90;;;;;;5010747;28;20298;-66
2022/02/24 02:01:56;;;;;;;8.43;7.40;;;8.10;99.90;;;;;;5010774;28;20227;-66
2022/02/24 02:04:23;;;;;;;8.40;7.53;;;8.10;99.90;;;;;;5013102;28;20196;-67
2022/02/24 02:06:49;;;;;;;9.10;7.00;;;8.10;99.90;;;;;;5014739;28;20531;-66
2022/02/24 02:09:15;;;;;;;7.67;7.07;;;8.10;99.90;;;;;;5014770;28;20231;-66
2022/02/24 02:11:40;;;;;;;11.00;8.07;;;8.10;99.90;;;;;;5003554;28;20206;-67
2022/02/24 02:14:13;;;;;;;7.97;7.27;;;8.10;99.90;;;;;;5014381;28;20192;-67
2022/02/24 02:16:58;;;;;;;8.93;7.13;;;8.10;99.90;;;;;;5014195;28;20203;-65
2022/02/24 02:19:25;;;;;;;7.70;7.10;;;8.10;99.90;;;;;;5013994;28;20176;-66
2022/02/24 02:21:51;;;;;;;9.67;7.33;;;8.10;99.90;;;;;;5014413;28;20251;-66
2022/02/24 02:24:17;;;;;;;8.57;7.13;;;8.10;99.90;;;;;;5014084;28;20619;-67
2022/02/24 02:26:43;;;;;;;8.33;6.77;;;8.10;99.90;;;;;;5014293;28;20172;-67
2022/02/24 02:29:11;;;;;;;7.37;6.77;;;8.10;99.90;;;;;;5012522;28;20180;-66
2022/02/24 02:31:36;;;;;;;11.13;7.40;;;8.10;99.90;;;;;;5014204;28;20222;-66
2022/02/24 02:34:07;;;;;;;7.80;6.97;;;8.10;99.90;;;;;;5057488;22;20307;-66
2022/02/24 02:36:34;;;;;;;7.70;7.00;;;8.20;99.90;;;;;;4976292;28;20344;-67
2022/02/24 02:39:00;;;;;;;8.13;7.20;;;8.20;99.90;;;;;;4975882;28;20176;-67
2022/02/24 02:41:29;;;;;;;7.63;7.10;;;8.20;99.90;;;;;;5005251;28;20631;-66
2022/02/24 02:43:56;;;;;;;9.70;8.27;;;8.20;99.90;;;;;;5000458;28;20199;-67
2022/02/24 02:46:21;;;;;;;7.57;6.87;;;8.20;99.90;;;;;;5013948;28;20176;-66
2022/02/24 02:48:47;;;;;;;8.03;7.10;;;8.20;99.90;;;;;;5008786;28;20299;-67
2022/02/24 02:51:13;;;;;;;7.40;6.70;;;8.20;99.90;;;;;;4995221;28;20173;-67
2022/02/24 02:53:39;;;;;;;7.70;6.97;;;8.20;99.90;;;;;;4997428;28;20229;-66
2022/02/24 02:56:05;;;;;;;8.50;7.70;;;8.20;99.90;;;;;;5012810;28;20254;-66
2022/02/24 02:58:30;;;;;;;8.03;7.30;;;8.20;99.90;;;;;;5010649;28;20543;-66
2022/02/24 03:00:56;;;;;;;7.90;7.10;;;8.20;99.90;;;;;;4995007;28;20188;-66
2022/02/24 03:03:25;;;;;;;7.97;7.20;;;8.20;99.90;;;;;;4994570;28;20169;-66
2022/02/24 03:05:51;;;;;;;7.57;6.80;;;8.20;99.90;;;;;;5014511;28;20651;-66
2022/02/24 03:08:17;;;;;;;7.50;6.90;;;8.20;99.90;;;;;;5014197;28;20172;-66
2022/02/24 03:10:43;;;;;;;7.47;6.87;;;8.20;99.90;;;;;;5012355;28;20184;-66
2022/02/24 03:13:09;;;;;;;8.03;7.43;;;8.30;99.90;;;;;;4996836;28;20173;-66
2022/02/24 03:15:34;;;;;;;8.03;7.33;;;8.30;99.90;;;;;;4998430;28;20279;-66
2022/02/24 03:18:00;;;;;;;7.60;7.00;;;8.40;99.90;;;;;;4999789;28;20263;-66
2022/02/24 03:20:30;;;;;;;8.03;6.73;;;8.40;99.90;;;;;;5013483;28;20191;-66
2022/02/24 03:23:02;;;;;;;8.20;7.40;;;8.40;99.90;;;;;;5009401;28;20173;-67
2022/02/24 03:25:29;;;;;;;8.20;7.03;;;8.30;99.90;;;;;;4993580;28;20197;-67
2022/02/24 03:27:55;;;;;;;7.60;6.97;;;8.30;99.90;;;;;;4998084;28;20183;-66
2022/02/24 03:30:21;;;;;;;6.80;6.20;;;8.30;99.90;;;;;;5013011;28;20188;-66
2022/02/24 03:32:48;;;;;;;10.17;7.30;;;8.20;99.90;;;;;;5012139;28;20226;-66
2022/02/24 03:35:14;;;;;;;8.73;7.17;;;8.20;99.90;;;;;;5013962;28;20208;-66
2022/02/24 03:37:40;;;;;;;7.93;7.13;;;8.20;99.90;;;;;;5012571;28;20222;-67
2022/02/24 03:40:07;;;;;;;8.43;7.50;;;8.20;99.90;;;;;;4994130;28;20181;-67
2022/02/24 03:42:33;;;;;;;7.80;7.10;;;8.20;99.90;;;;;;4993272;28;20177;-67
2022/02/24 03:44:59;;;;;;;8.57;7.70;;;8.20;99.90;;;;;;5012433;28;20200;-67
2022/02/24 03:47:25;;;;;;;8.17;7.67;;;8.20;99.90;;;;;;5012185;28;20180;-67
2022/02/24 03:49:51;;;;;;;7.77;7.03;;;8.30;99.90;;;;;;4994956;28;20189;-67
2022/02/24 03:52:18;;;;;;;8.03;7.23;;;8.20;99.90;;;;;;4993527;28;20603;-67
2022/02/24 03:54:44;;;;;;;7.70;7.10;;;8.20;99.90;;;;;;5008262;28;20249;-66
2022/02/24 03:57:10;;;;;;;7.87;7.27;;;8.20;99.90;;;;;;5011403;28;20172;-67
2022/02/24 03:59:37;;;;;;;7.40;6.80;;;8.20;99.90;;;;;;4997601;28;20184;-66
2022/02/24 04:02:04;;;;;;;12.27;7.13;;;8.20;99.90;;;;;;5002245;28;20545;-67
2022/02/24 04:04:29;;;;;;;7.20;6.70;;;8.20;99.90;;;;;;5013540;28;20195;-67
2022/02/24 04:06:55;;;;;;;8.20;7.40;;;8.20;99.90;;;;;;5006007;28;20546;-67
2022/02/24 04:09:20;;;;;;;8.03;7.30;;;8.20;99.90;;;;;;4993831;28;20230;-66
2022/02/24 04:11:46;;;;;;;7.73;7.20;;;8.20;99.90;;;;;;4999385;28;20184;-66
2022/02/24 04:14:12;;;;;;;7.77;7.00;;;8.20;99.90;;;;;;5013009;28;20268;-65
2022/02/24 04:16:37;;;;;;;8.43;7.50;;;8.20;99.90;;;;;;5009544;28;20209;-66
2022/02/24 04:19:03;;;;;;;9.23;7.17;;;8.10;99.90;;;;;;4993970;28;20181;-66
2022/02/24 04:21:29;;;;;;;8.03;7.13;;;8.10;99.90;;;;;;5013740;28;20699;-65
2022/02/24 04:23:55;;;;;;;7.93;7.20;;;8.10;99.90;;;;;;4995268;28;20287;-66
2022/02/24 04:26:20;;;;;;;9.13;7.43;;;8.10;99.90;;;;;;5011801;28;20191;-66
2022/02/24 04:28:46;;;;;;;8.77;8.00;;;8.10;99.90;;;;;;5013090;28;20227;-66
2022/02/24 04:31:11;;;;;;;8.77;7.90;;;8.10;99.90;;;;;;4995992;28;20184;-66
2022/02/24 04:33:37;;;;;;;8.47;7.83;;;8.10;99.90;;;;;;4993727;28;20721;-66
2022/02/24 04:36:03;;;;;;;9.23;8.33;;;8.10;99.90;;;;;;5007082;28;20296;-66
2022/02/24 04:38:28;;;;;;;9.47;8.40;;;8.10;99.90;;;;;;5013291;28;20588;-66
2022/02/24 04:40:54;;;;;;;9.67;8.00;;;8.10;99.90;;;;;;4999369;28;20192;-66
2022/02/24 04:43:20;;;;;;;9.23;8.47;;;8.10;99.90;;;;;;4992824;28;20181;-66
2022/02/24 04:45:45;;;;;;;8.60;8.10;;;8.20;99.90;;;;;;4987889;28;20203;-66
2022/02/24 04:48:12;;;;;;;8.53;7.93;;;8.20;99.90;;;;;;5011530;28;20179;-66
2022/02/24 04:50:38;;;;;;;8.67;7.87;;;8.20;99.90;;;;;;5001775;28;20650;-66
2022/02/24 04:53:04;;;;;;;9.33;8.47;;;8.30;99.90;;;;;;4992649;28;20688;-66
2022/02/24 04:55:29;;;;;;;8.50;7.83;;;8.30;99.90;;;;;;4996476;28;20220;-66
2022/02/24 04:57:55;;;;;;;9.73;6.90;;;8.30;99.90;;;;;;4996715;28;20183;-66
2022/02/24 05:00:21;;;;;;;7.07;6.67;;;8.40;99.90;;;;;;5011407;28;20226;-66
2022/02/24 05:02:47;;;;;;;11.47;7.43;;;8.50;99.90;;;;;;5009331;28;20176;-66
2022/02/24 05:05:12;;;;;;;10.17;7.40;;;8.50;99.90;;;;;;4991466;28;20272;-65
2022/02/24 05:07:38;;;;;;;9.03;7.50;;;8.60;99.90;;;;;;4994135;28;20188;-65
2022/02/24 05:10:04;;;;;;;9.40;7.47;;;8.60;99.90;;;;;;5012376;28;20266;-66
2022/02/24 05:12:30;;;;;;;9.23;6.93;;;8.60;99.90;;;;;;5012069;28;20618;-66
2022/02/24 05:14:56;;;;;;;7.17;6.67;;;8.70;99.90;;;;;;4992857;28;20287;-67
2022/02/24 05:17:21;;;;;;;10.93;7.20;;;8.70;99.90;;;;;;4991600;28;20204;-66
2022/02/24 05:19:47;;;;;;;7.80;6.70;;;8.70;99.90;;;;;;5010326;28;20203;-66
2022/02/24 05:22:13;;;;;;;7.50;6.77;;;8.80;99.90;;;;;;5012403;28;20176;-66
2022/02/24 05:24:38;;;;;;;7.43;6.70;;;8.80;99.90;;;;;;4996281;28;20259;-67
2022/02/24 05:27:04;;;;;;;9.30;7.17;;;8.80;99.90;;;;;;5004741;28;20200;-67
2022/02/24 05:29:29;;;;;;;8.47;7.60;;;8.70;99.90;;;;;;5000489;28;20181;-67
2022/02/24 05:31:55;;;;;;;8.30;7.60;;;8.70;99.90;;;;;;5002502;28;20657;-67
2022/02/24 05:34:21;;;;;;;7.67;7.03;;;8.60;99.90;;;;;;5011965;28;20211;-67
2022/02/24 05:36:46;;;;;;;8.20;7.43;;;8.60;99.90;;;;;;5007223;28;20200;-67
2022/02/24 05:39:12;;;;;;;10.13;6.93;;;8.50;99.90;;;;;;4994147;28;20181;-67
2022/02/24 05:41:38;;;;;;;7.20;6.80;;;8.50;99.90;;;;;;4995505;28;20173;-67
2022/02/24 05:44:04;;;;;;;7.77;7.17;;;8.50;99.90;;;;;;4996476;28;20204;-67
2022/02/24 05:46:30;;;;;;;7.77;7.30;;;8.40;99.90;;;;;;4995309;28;20279;-67
2022/02/24 05:48:55;;;;;;;8.03;7.33;;;8.40;99.90;;;;;;5000381;28;20685;-67
2022/02/24 05:51:21;;;;;;;9.10;8.20;;;8.40;99.90;;;;;;5016442;28;20255;-67
2022/02/24 05:53:47;;;;;;;8.80;7.90;;;8.40;99.90;;;;;;5012897;28;20220;-67
2022/02/24 05:56:12;;;;;;;8.93;8.33;;;8.30;99.90;;;;;;4996083;28;20201;-67
2022/02/24 05:58:38;;;;;;;9.27;8.67;;;8.30;99.90;;;;;;4996037;28;20188;-67
2022/02/24 06:01:04;;;;;;;11.03;9.63;;;8.30;99.90;;;;;;5014819;28;20176;-67
2022/02/24 06:03:30;;;;;;;9.40;8.47;;;8.30;99.90;;;;;;4994416;28;20708;-67
2022/02/24 06:05:58;;;;;;;17.67;11.93;;;8.30;99.90;;;;;;5013840;28;20184;-67
2022/02/24 06:08:25;;;;;;;38.10;18.93;;;8.20;99.90;;;;;;5013505;28;20525;-67
2022/02/24 06:10:51;;;;;;;23.77;15.30;;;8.30;99.90;;;;;;4996692;28;20191;-67
2022/02/24 06:13:16;;;;;;;11.90;10.30;;;8.20;99.90;;;;;;4994724;28;20260;-66
2022/02/24 06:15:42;;;;;;;11.70;9.43;;;8.20;99.90;;;;;;5010467;28;20642;-67
2022/02/24 06:18:08;;;;;;;9.37;8.73;;;8.20;99.90;;;;;;5010419;28;20172;-67
2022/02/24 06:20:34;;;;;;;11.50;8.50;;;8.20;99.90;;;;;;4994965;28;20188;-67
2022/02/24 06:23:00;;;;;;;9.23;8.33;;;8.20;99.90;;;;;;5005028;28;20176;-67
2022/02/24 06:25:26;;;;;;;8.33;7.67;;;8.30;99.90;;;;;;5014440;28;20251;-67
2022/02/24 06:27:51;;;;;;;8.80;7.50;;;8.30;99.90;;;;;;5004980;28;20552;-67
2022/02/24 06:30:17;;;;;;;8.33;7.63;;;8.30;99.90;;;;;;4993334;28;20312;-65
2022/02/24 06:32:43;;;;;;;7.93;7.33;;;8.40;99.90;;;;;;5000256;28;20842;-66
2022/02/24 06:35:10;;;;;;;7.87;7.33;;;8.40;99.90;;;;;;5007603;28;20622;-65
2022/02/24 06:37:38;;;;;;;9.33;8.43;;;8.40;99.90;;;;;;5000361;28;20219;-66
2022/02/24 06:40:05;;;;;;;8.17;7.20;;;8.50;99.90;;;;;;5013870;28;20230;-66
2022/02/24 06:42:30;;;;;;;8.27;7.20;;;8.50;99.90;;;;;;4999039;28;20184;-66
2022/02/24 06:44:56;;;;;;;7.70;7.00;;;8.60;99.90;;;;;;4994171;28;20199;-65
2022/02/24 06:47:22;;;;;;;8.23;6.90;;;8.60;99.90;;;;;;5005360;28;20253;-66
2022/02/24 06:49:47;;;;;;;7.33;6.60;;;8.70;99.90;;;;;;5012772;28;20629;-66
2022/02/24 06:52:13;;;;;;;8.63;7.07;;;8.70;99.90;;;;;;5004056;28;20184;-66
2022/02/24 06:54:38;;;;;;;6.90;6.50;;;8.80;99.90;;;;;;4994090;28;20275;-66
2022/02/24 06:57:06;;;;;;;7.30;6.80;;;8.80;99.90;;;;;;5006362;28;20299;-68
2022/02/24 06:59:34;;;;;;;6.87;6.37;;;8.80;99.90;;;;;;5013865;28;20175;-66
2022/02/24 07:02:00;;;;;;;7.23;6.63;;;8.90;99.90;;;;;;5001583;28;20188;-66
2022/02/24 07:04:25;;;;;;;6.90;6.27;;;8.90;99.90;;;;;;5011590;28;20258;-66
2022/02/24 07:06:51;;;;;;;7.00;6.50;;;9.00;99.90;;;;;;5003507;28;20177;-66
2022/02/24 07:09:16;;;;;;;7.43;6.90;;;9.00;99.90;;;;;;4991921;28;20181;-66
2022/02/24 07:11:42;;;;;;;7.33;6.73;;;9.00;99.90;;;;;;5009430;28;20202;-66
2022/02/24 07:14:08;;;;;;;9.80;6.60;;;9.10;99.90;;;;;;5013044;28;20188;-66
2022/02/24 07:16:35;;;;;;;7.17;6.47;;;9.10;99.90;;;;;;4999094;28;20576;-66
2022/02/24 07:19:01;;;;;;;9.17;7.50;;;9.10;99.90;;;;;;4993419;28;20169;-65
2022/02/24 07:21:27;;;;;;;7.33;6.83;;;9.20;99.90;;;;;;5006024;28;20660;-66
2022/02/24 07:23:53;;;;;;;7.30;6.80;;;9.30;99.90;;;;;;5012879;28;20196;-66
2022/02/24 07:26:18;;;;;;;8.40;7.70;;;9.30;99.90;;;;;;5002188;28;20216;-66
2022/02/24 07:28:45;;;;;;;8.47;7.13;;;9.30;99.90;;;;;;4993636;28;20169;-66
2022/02/24 07:31:14;;;;;;;8.60;6.60;;;9.30;99.90;;;;;;5001880;28;20188;-66
2022/02/24 07:33:41;;;;;;;7.90;7.20;;;9.40;99.90;;;;;;5002797;28;20599;-66
2022/02/24 07:36:07;;;;;;;9.63;8.07;;;9.40;99.90;;;;;;4999375;28;20204;-66
2022/02/24 07:38:32;;;;;;;10.77;8.07;;;9.40;99.90;;;;;;5012959;28;20222;-66
2022/02/24 07:40:58;;;;;;;8.17;7.53;;;9.40;99.90;;;;;;4999065;28;20181;-66
2022/02/24 07:43:24;;;;;;;8.50;7.80;;;9.40;99.90;;;;;;4992549;28;20746;-66
2022/02/24 07:45:49;;;;;;;8.33;7.70;;;9.40;99.90;;;;;;5004270;28;20188;-66
2022/02/24 07:48:15;;;;;;;7.83;7.20;;;9.40;99.90;;;;;;5012523;28;20336;-66
2022/02/24 07:50:41;;;;;;;7.47;6.80;;;9.40;99.90;;;;;;5003623;28;20531;-66
2022/02/24 07:53:06;;;;;;;11.87;7.20;;;9.40;99.90;;;;;;5011920;28;20697;-66
2022/02/24 07:55:32;;;;;;;8.73;7.60;;;9.40;99.90;;;;;;5004363;28;20208;-66
2022/02/24 07:57:58;;;;;;;8.20;7.43;;;9.40;99.90;;;;;;4992793;28;20553;-66
2022/02/24 08:00:23;;;;;;;9.67;6.77;;;9.40;99.90;;;;;;4997021;28;20198;-66
2022/02/24 08:02:51;;;;;;;7.37;6.70;;;9.40;99.90;;;;;;4994625;28;20597;-66
2022/02/24 08:05:17;;;;;;;8.60;7.50;;;9.50;99.90;;;;;;5012462;28;20190;-66
2022/02/24 08:07:43;;;;;;;7.63;7.03;;;9.50;99.90;;;;;;5010921;28;20694;-66
2022/02/24 08:10:10;;;;;;;8.37;7.53;;;9.50;99.90;;;;;;4973124;28;20639;-66
2022/02/24 08:12:45;;;;;;;8.17;7.47;;;9.60;99.90;;;;;;4973138;28;20165;-66
2022/02/24 08:15:12;;;;;;;7.27;6.73;;;9.60;99.90;;;;;;4972746;28;20247;-66
2022/02/24 08:17:38;;;;;;;9.27;7.20;;;9.60;99.90;;;;;;4988727;28;20176;-66
2022/02/24 08:20:07;;;;;;;7.90;7.20;;;9.70;99.90;;;;;;5011866;28;20172;-66
2022/02/24 08:22:33;;;;;;;7.20;6.70;;;9.80;99.90;;;;;;5005289;28;20176;-66
2022/02/24 08:24:59;;;;;;;7.70;7.00;;;9.80;99.90;;;;;;4992128;28;20192;-66
2022/02/24 08:27:25;;;;;;;8.00;7.30;;;9.80;99.90;;;;;;4996744;28;20177;-66
2022/02/24 08:29:50;;;;;;;16.23;7.73;;;9.70;99.90;;;;;;5002305;28;20282;-66
2022/02/24 08:32:16;;;;;;;8.03;7.37;;;9.70;99.90;;;;;;4993402;28;20251;-66
2022/02/24 08:34:41;;;;;;;12.17;8.50;;;9.70;99.90;;;;;;5006449;22;20310;-66
2022/02/24 08:37:07;;;;;;;7.57;6.70;;;9.60;99.90;;;;;;5011801;28;20271;-66
2022/02/24 08:39:33;;;;;;;7.43;6.57;;;9.60;99.90;;;;;;5011313;28;20199;-66
2022/02/24 08:41:58;;;;;;;6.97;6.30;;;9.60;99.90;;;;;;5011807;28;20176;-66
2022/02/24 08:44:24;;;;;;;7.37;6.90;;;9.50;99.90;;;;;;5001401;28;20217;-66
2022/02/24 08:46:50;;;;;;;8.70;7.60;;;9.50;99.90;;;;;;4972768;28;20184;-66
2022/02/24 08:49:15;;;;;;;7.90;7.13;;;9.50;99.90;;;;;;4972423;28;20170;-66
2022/02/24 08:51:41;;;;;;;9.10;7.83;;;9.50;99.90;;;;;;4973053;28;20178;-66
2022/02/24 08:54:07;;;;;;;8.00;7.30;;;9.50;99.90;;;;;;4982483;28;20706;-66
2022/02/24 08:56:33;;;;;;;7.37;6.90;;;9.50;99.90;;;;;;4991187;28;20201;-66
2022/02/24 08:58:59;;;;;;;7.73;7.20;;;9.50;99.90;;;;;;4992094;28;20694;-66
2022/02/24 09:01:25;;;;;;;8.17;7.57;;;9.50;99.90;;;;;;4992070;28;20173;-66
2022/02/24 09:03:50;;;;;;;8.57;7.87;;;9.50;99.90;;;;;;4991882;28;20173;-66
2022/02/24 09:06:16;;;;;;;8.30;7.60;;;9.50;99.90;;;;;;4991993;28;20231;-66
2022/02/24 09:08:43;;;;;;;9.33;8.37;;;9.50;99.90;;;;;;4991891;28;20657;-66
2022/02/24 09:11:09;;;;;;;7.90;7.20;;;9.60;99.90;;;;;;4991767;28;20546;-66
2022/02/24 09:13:35;;;;;;;34.30;10.53;;;9.60;99.90;;;;;;4990898;28;20271;-65
2022/02/24 09:16:01;;;;;;;8.30;7.50;;;9.60;99.90;;;;;;4991565;28;20242;-66
2022/02/24 09:18:26;;;;;;;9.00;8.10;;;9.70;99.90;;;;;;4991748;28;20165;-66
2022/02/24 09:20:52;;;;;;;10.00;9.33;;;9.80;99.90;;;;;;4991720;28;20172;-66
2022/02/24 09:23:18;;;;;;;14.07;11.20;;;9.80;99.90;;;;;;4991306;28;20212;-66
2022/02/24 09:25:43;;;;;;;13.03;10.30;;;9.80;99.90;;;;;;4990281;28;20209;-66
2022/02/24 09:28:09;;;;;;;8.80;7.80;;;9.80;99.90;;;;;;4991491;28;20650;-66
2022/02/24 09:30:35;;;;;;;8.20;7.37;;;9.80;99.90;;;;;;4991731;28;20268;-66
2022/02/24 09:33:01;;;;;;;8.27;7.20;;;9.70;99.90;;;;;;4991401;28;20665;-66
2022/02/24 09:35:26;;;;;;;8.67;7.53;;;9.60;99.90;;;;;;4990502;28;20546;-66
2022/02/24 09:37:52;;;;;;;10.23;7.40;;;9.30;99.90;;;;;;4990797;28;20651;-66
2022/02/24 09:40:18;;;;;;;8.17;7.37;;;9.20;99.90;;;;;;4990498;28;20175;-66
2022/02/24 09:42:44;;;;;;;7.97;7.27;;;9.10;99.90;;;;;;4990496;28;20177;-66
2022/02/24 09:45:10;;;;;;;8.07;7.00;;;9.10;99.90;;;;;;4981910;28;20259;-66
2022/02/24 09:47:39;;;;;;;10.50;9.40;;;9.10;99.90;;;;;;4980804;28;20604;-66
2022/02/24 09:50:06;;;;;;;9.33;8.00;;;9.00;99.90;;;;;;4971028;28;20263;-66
2022/02/24 09:52:32;;;;;;;9.17;8.13;;;8.80;99.90;;;;;;4980098;28;20704;-66
2022/02/24 09:54:57;;;;;;;11.40;7.60;;;8.80;99.90;;;;;;4989352;28;20539;-66
2022/02/24 09:57:23;;;;;;;14.70;8.53;;;8.70;99.90;;;;;;4988058;28;20607;-66
2022/02/24 09:59:49;;;;;;;8.30;7.50;;;8.60;99.90;;;;;;4984142;28;20219;-67
2022/02/24 10:02:16;;;;;;;9.50;8.60;;;8.60;99.90;;;;;;4970483;28;20174;-66
2022/02/24 10:05:18;;;;;;;9.50;8.87;;;8.60;99.90;;;;;;4974641;28;20259;-66
2022/02/24 10:07:43;;;;;;;11.43;8.53;;;8.70;99.90;;;;;;4985738;28;20214;-65
2022/02/24 10:10:31;;;;;;;8.47;7.77;;;8.70;99.90;;;;;;4970131;28;20233;-66
2022/02/24 10:13:12;;;;;;;9.03;8.03;;;8.70;99.90;;;;;;4975832;28;20204;-66
2022/02/24 10:15:41;;;;;;;9.73;8.40;;;8.70;99.90;;;;;;4974398;28;20272;-66
2022/02/24 10:18:12;;;;;;;9.17;7.87;;;8.70;99.90;;;;;;4976787;28;20173;-65
2022/02/24 10:20:40;;;;;;;13.00;8.47;;;8.70;99.90;;;;;;4990276;28;20169;-65
2022/02/24 10:23:07;;;;;;;11.40;7.23;;;8.70;99.90;;;;;;4983790;28;20184;-68
2022/02/24 10:26:09;;;;;;;9.53;8.50;;;8.70;99.90;;;;;;4973238;28;20193;-66
2022/02/24 10:28:51;;;;;;;8.50;7.90;;;8.80;99.90;;;;;;4975728;28;20226;-66
2022/02/24 10:31:21;;;;;;;8.13;7.30;;;8.90;99.90;;;;;;4992558;28;20181;-65
2022/02/24 10:34:07;;;;;;;9.10;7.17;;;8.80;99.90;;;;;;4953839;28;1098246;-65
2022/02/24 10:36:34;;;;;;;9.03;8.23;;;8.90;99.90;;;;;;4994744;28;20231;-65
2022/02/24 10:39:11;;;;;;;8.50;7.80;;;8.90;99.90;;;;;;4982058;28;20181;-66
2022/02/24 10:41:42;;;;;;;10.50;7.90;;;9.00;99.90;;;;;;4974675;28;20529;-66
2022/02/24 10:44:23;;;;;;;8.90;8.00;;;9.10;99.90;;;;;;4986773;28;20197;-65
2022/02/24 10:47:07;;;;;;;10.63;9.67;;;9.40;99.90;;;;;;4994289;28;20172;-66
2022/02/24 10:49:52;;;;;;;9.03;8.33;;;9.60;99.90;;;;;;4978855;28;20177;-65
2022/02/24 10:52:19;;;;;;;8.77;8.17;;;9.90;99.90;;;;;;4974435;28;20719;-65
2022/02/24 10:55:06;;;;;;;11.00;9.00;;;10.10;99.90;;;;;;4991105;28;20205;-65
2022/02/24 10:57:32;;;;;;;16.90;11.80;;;10.20;99.90;;;;;;4988730;28;20657;-66
2022/02/24 10:59:59;;;;;;;11.20;8.33;;;10.30;99.90;;;;;;4993814;28;20245;-66
2022/02/24 11:02:26;;;;;;;27.77;17.03;;;10.40;99.90;;;;;;4984881;28;20220;-66
2022/02/24 11:04:53;;;;;;;12.03;8.10;;;10.50;99.90;;;;;;4994104;28;20238;-66
2022/02/24 11:07:19;;;;;;;9.13;8.40;;;10.70;99.90;;;;;;4992980;28;20573;-66
2022/02/24 11:09:45;;;;;;;8.40;7.80;;;10.80;99.90;;;;;;4994080;28;20173;-66
2022/02/24 11:12:13;;;;;;;9.70;8.70;;;11.00;99.90;;;;;;4981955;28;20520;-66
2022/02/24 11:14:40;;;;;;;7.77;7.10;;;11.10;99.90;;;;;;4974329;28;20208;-66
2022/02/24 11:17:09;;;;;;;8.47;7.70;;;11.10;99.90;;;;;;4983663;28;20208;-66
2022/02/24 11:19:40;;;;;;;7.57;7.00;;;11.10;99.90;;;;;;4993703;28;20169;-66
2022/02/24 11:22:07;;;;;;;8.60;7.23;;;11.00;99.90;;;;;;4992825;28;20610;-65
2022/02/24 11:24:34;;;;;;;7.63;6.90;;;10.90;99.90;;;;;;4987043;28;20221;-66
2022/02/24 11:27:18;;;;;;;8.53;7.90;;;10.80;99.90;;;;;;4983011;28;20177;-66
2022/02/24 11:29:55;;;;;;;8.07;7.33;;;10.70;99.90;;;;;;4993040;28;20181;-66
2022/02/24 11:32:22;;;;;;;8.70;6.93;;;10.50;99.90;;;;;;4981609;28;20185;-66
2022/02/24 11:35:07;;;;;;;7.10;6.57;;;10.30;99.90;;;;;;4977287;28;20717;-65
2022/02/24 11:37:44;;;;;;;8.03;7.27;;;10.30;99.90;;;;;;4979436;28;20204;-65
2022/02/24 11:40:17;;;;;;;8.07;7.27;;;10.20;99.90;;;;;;4973372;28;20247;-65
2022/02/24 11:42:45;;;;;;;7.50;7.10;;;10.10;99.90;;;;;;4987292;28;20204;-65
2022/02/24 11:45:23;;;;;;;7.83;7.23;;;10.20;99.90;;;;;;4992930;28;20283;-66
2022/02/24 11:47:55;;;;;;;10.27;7.70;;;10.30;99.90;;;;;;4978754;28;20181;-65
2022/02/24 11:50:29;;;;;;;9.60;7.40;;;10.40;99.90;;;;;;4971960;28;20264;-65
2022/02/24 11:52:55;;;;;;;8.90;7.43;;;10.40;99.90;;;;;;4987938;28;20681;-68
2022/02/24 11:55:41;;;;;;;9.03;7.17;;;10.40;99.90;;;;;;4992704;28;20201;-68
2022/02/24 11:58:42;;;;;;;7.40;6.80;;;10.40;99.90;;;;;;4976822;28;20281;-69
2022/02/24 12:01:52;;;;;;;7.17;6.63;;;10.50;99.90;;;;;;4973169;28;20227;-68
2022/02/24 12:04:25;;;;;;;7.97;7.27;;;10.60;99.90;;;;;;4973031;28;20527;-70
2022/02/24 12:07:22;;;;;;;8.07;7.37;;;10.60;99.90;;;;;;4976914;28;20545;-67
2022/02/24 12:10:09;;;;;;;7.20;6.60;;;10.80;99.90;;;;;;4972360;28;20196;-68
2022/02/24 12:12:34;;;;;;;7.97;7.33;;;11.10;99.90;;;;;;4982318;28;20203;-69
2022/02/24 12:15:01;;;;;;;8.27;7.47;;;11.40;99.90;;;;;;4992416;28;20200;-69
2022/02/24 12:17:43;;;;;;;8.77;6.63;;;11.70;99.90;;;;;;4982967;28;20173;-70
2022/02/24 12:20:26;;;;;;;7.43;6.67;;;12.40;99.90;;;;;;4979604;28;20192;-68
2022/02/24 12:22:52;;;;;;;6.53;6.03;;;13.30;99.90;;;;;;4992322;28;20184;-69
2022/02/24 12:25:26;;;;;;;6.67;6.07;;;14.00;99.90;;;;;;4984775;28;20598;-67
2022/02/24 12:28:06;;;;;;;6.23;5.40;;;14.40;99.90;;;;;;4973260;28;20196;-66
2022/02/24 12:30:40;;;;;;;6.10;5.60;;;14.60;99.90;;;;;;4981472;28;20181;-66
2022/02/24 12:33:11;;;;;;;8.50;6.57;;;14.60;99.90;;;;;;4991998;28;20173;-65
2022/02/24 12:35:38;;;;;;;6.57;6.00;;;13.90;99.90;;;;;;4981615;28;20530;-66
2022/02/24 12:38:05;;;;;;;5.83;5.50;;;13.20;99.90;;;;;;4972503;28;20753;-65
2022/02/24 12:40:32;;;;;;;6.77;6.17;;;12.70;99.90;;;;;;4989718;28;20559;-66
2022/02/24 12:43:00;;;;;;;7.27;5.90;;;12.50;99.90;;;;;;5010353;28;20582;-66
2022/02/24 12:45:27;;;;;;;6.37;5.80;;;12.30;99.90;;;;;;5003947;28;20737;-66
2022/02/24 12:47:55;;;;;;;6.87;6.47;;;12.30;99.90;;;;;;4988216;28;20280;-66
2022/02/24 12:50:23;;;;;;;6.17;5.83;;;12.50;99.90;;;;;;4971647;28;20178;-66
2022/02/24 12:52:49;;;;;;;5.70;5.40;;;12.40;99.90;;;;;;4973784;28;20173;-66
2022/02/24 12:55:19;;;;;;;6.53;5.93;;;12.70;99.90;;;;;;4991853;28;20218;-66